createdAt,value
2023-01-02T00:00:33.468Z,16.85
2023-01-02T00:05:38.664Z,13.50
2023-01-02T00:10:42.438Z,11.32
2023-01-02T00:15:46.213Z,14.20
2023-01-02T00:20:51.431Z,14.23
2023-01-02T00:25:55.142Z,16.70
2023-01-02T00:30:59.112Z,15.55
2023-01-02T00:36:07.164Z,13.00
2023-01-02T00:41:11.279Z,12.85
2023-01-02T00:46:15.857Z,12.77
2023-01-02T00:51:22.000Z,12.60
2023-01-02T00:56:25.747Z,13.70
2023-01-02T01:01:29.551Z,16.02
2023-01-02T01:06:35.643Z,12.75
2023-01-02T01:11:39.367Z,12.65
2023-01-02T01:16:43.187Z,15.18
2023-01-02T01:21:48.277Z,14.68
2023-01-02T01:26:52.125Z,10.40
2023-01-02T01:31:55.925Z,15.38
2023-01-02T01:37:01.074Z,11.00
2023-01-02T01:42:05.075Z,11.75
2023-01-02T01:47:17.049Z,12.52
2023-01-02T01:52:26.907Z,12.57
2023-01-02T01:57:34.488Z,11.82
2023-01-02T02:02:41.316Z,13.37
2023-01-02T02:07:52.843Z,17.27
2023-01-02T02:12:56.613Z,13.27
2023-01-02T02:18:08.049Z,12.15
2023-01-02T02:23:40.983Z,13.25
2023-01-02T02:29:30.708Z,9.00
2023-01-02T02:34:44.813Z,13.07
2023-01-02T02:40:02.959Z,11.95
2023-01-02T02:45:12.216Z,16.52
2023-01-02T02:50:27.748Z,11.48
2023-01-02T02:55:37.168Z,12.23
2023-01-02T03:00:40.899Z,13.30
2023-01-02T03:06:03.707Z,11.48
2023-01-02T03:11:07.691Z,13.77
2023-01-02T03:16:14.687Z,8.30
2023-01-02T03:21:30.933Z,11.98
2023-01-02T03:26:37.571Z,8.55
2023-01-02T03:31:43.341Z,8.68
2023-01-02T03:36:55.061Z,13.13
2023-01-02T03:42:04.129Z,14.90
2023-01-02T03:47:25.300Z,13.30
2023-01-02T03:52:30.594Z,8.07
2023-01-02T03:57:41.922Z,8.25
2023-01-02T04:02:51.254Z,10.77
2023-01-02T04:08:01.131Z,9.77
2023-01-02T04:13:09.551Z,15.52
2023-01-02T04:18:17.895Z,12.02
2023-01-02T04:28:31.618Z,8.98
2023-01-02T04:33:39.186Z,15.02
2023-01-02T04:38:45.457Z,10.63
2023-01-02T04:43:49.209Z,9.65
2023-01-02T04:48:54.243Z,14.68
2023-01-02T04:53:59.408Z,13.43
2023-01-02T04:59:03.136Z,14.85
2023-01-02T05:04:06.898Z,13.68
2023-01-02T05:09:12.176Z,11.95
2023-01-02T05:14:15.981Z,15.90
2023-01-02T05:19:19.798Z,11.35
2023-01-02T05:24:26.462Z,8.98
2023-01-02T05:29:30.828Z,11.00
2023-01-02T05:34:34.521Z,9.70
2023-01-02T05:39:39.595Z,11.48
2023-01-02T05:44:43.536Z,7.70
2023-01-02T05:49:47.331Z,9.52
2023-01-02T05:54:52.418Z,6.43
2023-01-02T05:59:56.144Z,4.12
2023-01-02T06:04:59.855Z,0.80
2023-01-02T06:10:05.279Z,1.15
2023-01-02T06:15:10.089Z,0.57
2023-01-02T06:20:13.933Z,0.50
2023-01-02T06:25:19.064Z,0.57
2023-01-02T06:30:22.893Z,0.30
2023-01-02T06:35:26.597Z,0.98
2023-01-02T06:40:31.724Z,2.37
2023-01-02T06:45:35.599Z,3.22
2023-01-02T06:50:39.407Z,2.87
2023-01-02T06:55:53.025Z,2.95
2023-01-02T07:00:56.832Z,3.10
2023-01-02T07:06:02.307Z,3.20
2023-01-02T07:11:12.626Z,3.35
2023-01-02T07:16:18.042Z,3.72
2023-01-02T07:21:22.327Z,5.05
2023-01-02T07:26:27.525Z,5.30
2023-01-02T07:31:31.284Z,3.37
2023-01-02T07:36:35.122Z,1.90
2023-01-02T07:41:40.536Z,2.22
2023-01-02T07:46:47.643Z,2.90
2023-01-02T07:51:51.461Z,5.87
2023-01-02T07:56:56.520Z,2.62
2023-01-02T08:02:00.477Z,4.68
2023-01-02T08:07:04.282Z,2.83
2023-01-02T08:12:09.385Z,4.00
2023-01-02T08:17:13.129Z,7.53
2023-01-02T08:22:16.994Z,8.45
2023-01-02T08:27:22.070Z,7.90
2023-01-02T08:32:26.767Z,6.12
2023-01-02T08:37:30.508Z,7.18
2023-01-02T08:42:35.671Z,8.15
2023-01-02T08:47:39.445Z,13.23
2023-01-02T08:52:43.236Z,9.27
2023-01-02T08:57:48.355Z,13.75
2023-01-02T09:02:52.318Z,7.45
2023-01-02T09:07:56.091Z,10.85
2023-01-02T09:13:01.216Z,7.18
2023-01-02T09:18:04.989Z,9.05
2023-01-02T09:23:09.306Z,13.35
2023-01-02T09:28:14.410Z,7.12
2023-01-02T09:33:18.098Z,11.48
2023-01-02T09:38:21.800Z,8.52
2023-01-02T09:43:33.951Z,11.98
2023-01-02T09:48:37.974Z,13.05
2023-01-02T09:53:42.143Z,8.07
2023-01-02T09:58:52.052Z,12.20
2023-01-02T10:04:02.815Z,8.65
2023-01-02T10:09:13.728Z,9.38
2023-01-02T10:14:36.044Z,8.38
2023-01-02T10:19:49.653Z,10.07
2023-01-02T10:25:02.438Z,9.32
2023-01-02T10:30:18.723Z,7.45
2023-01-02T10:35:37.860Z,10.70
2023-01-02T10:40:44.273Z,21.52
2023-01-02T10:45:49.422Z,17.08
2023-01-02T10:50:57.651Z,14.43
2023-01-02T10:56:05.131Z,13.40
2023-01-02T11:01:14.664Z,11.13
2023-01-02T11:06:35.213Z,10.65
2023-01-02T11:11:50.549Z,13.68
2023-01-02T11:16:59.493Z,18.65
2023-01-02T11:22:04.917Z,16.48
2023-01-02T11:27:10.615Z,16.00
2023-01-02T11:32:24.890Z,16.70
2023-01-02T11:37:29.638Z,17.45
2023-01-02T11:42:58.684Z,17.33
2023-01-02T11:48:06.939Z,16.92
2023-01-02T11:53:19.838Z,15.32
2023-01-02T11:58:28.439Z,13.30
2023-01-02T12:03:34.786Z,16.62
2023-01-02T12:08:51.343Z,14.45
2023-01-02T12:14:09.975Z,13.27
2023-01-02T12:19:36.581Z,17.83
2023-01-02T12:24:58.591Z,29.23
2023-01-02T12:30:08.914Z,19.25
2023-01-02T12:35:35.936Z,12.48
2023-01-02T12:40:56.707Z,17.65
2023-01-02T12:46:12.467Z,16.30
2023-01-02T12:51:22.357Z,14.38
2023-01-02T12:56:34.265Z,14.63
2023-01-02T13:01:44.387Z,14.90
2023-01-02T13:06:54.067Z,15.18
2023-01-02T13:12:10.095Z,18.35
2023-01-02T13:17:35.348Z,15.32
2023-01-02T13:22:51.773Z,16.50
2023-01-02T13:28:00.173Z,23.33
2023-01-02T13:33:12.889Z,12.20
2023-01-02T13:38:20.117Z,15.88
2023-01-02T13:43:28.465Z,15.32
2023-01-02T13:53:41.996Z,17.08
2023-01-02T13:58:48.842Z,13.77
2023-01-02T14:04:30.470Z,19.87
2023-01-02T14:10:01.620Z,16.90
2023-01-02T14:15:06.027Z,17.02
2023-01-02T14:20:25.267Z,13.43
2023-01-02T14:25:31.962Z,13.95
2023-01-02T14:30:38.728Z,13.00
2023-01-02T14:35:51.391Z,10.52
2023-01-02T14:41:18.368Z,8.95
2023-01-02T14:46:26.276Z,11.48
2023-01-02T14:51:33.991Z,9.25
2023-01-02T14:56:42.520Z,9.38
2023-01-02T15:01:53.009Z,8.77
2023-01-02T15:07:09.926Z,11.77
2023-01-02T15:12:41.790Z,8.93
2023-01-02T15:17:48.144Z,12.73
2023-01-02T15:22:53.385Z,10.35
2023-01-02T15:27:58.439Z,9.90
2023-01-02T15:33:02.189Z,5.80
2023-01-02T15:38:21.356Z,6.43
2023-01-02T15:43:46.281Z,6.93
2023-01-02T15:48:50.680Z,7.65
2023-01-02T15:54:03.010Z,11.90
2023-01-02T15:59:26.047Z,10.55
2023-01-02T16:04:32.160Z,10.52
2023-01-02T16:09:36.048Z,10.20
2023-01-02T16:14:45.261Z,19.15
2023-01-02T16:19:58.644Z,11.30
2023-01-02T16:25:07.890Z,10.85
2023-01-02T16:30:29.822Z,14.43
2023-01-02T16:35:36.925Z,13.13
2023-01-02T16:41:01.491Z,12.32
2023-01-02T16:46:11.658Z,15.25
2023-01-02T16:51:16.734Z,18.30
2023-01-02T16:56:20.839Z,15.15
2023-01-02T17:01:26.092Z,17.30
2023-01-02T17:06:29.923Z,14.23
2023-01-02T17:11:33.662Z,14.02
2023-01-02T17:16:38.817Z,17.00
2023-01-02T17:21:42.589Z,17.10
2023-01-02T17:26:47.210Z,15.88
2023-01-02T17:31:52.646Z,8.63
2023-01-02T17:36:57.082Z,13.98
2023-01-02T17:42:01.065Z,6.45
2023-01-02T17:47:38.613Z,8.75
2023-01-02T17:52:30.001Z,11.70
2023-01-02T17:57:36.544Z,7.60
2023-01-02T18:02:42.247Z,9.50
2023-01-02T18:07:46.312Z,13.48
2023-01-02T18:12:50.276Z,15.30
2023-01-02T18:17:56.648Z,21.67
2023-01-02T18:23:00.721Z,17.70
2023-01-02T18:28:18.860Z,15.15
2023-01-02T18:33:26.159Z,15.75
2023-01-02T18:38:32.329Z,18.75
2023-01-02T18:43:36.523Z,15.55
2023-01-02T18:48:41.851Z,16.37
2023-01-02T18:53:48.909Z,22.60
2023-01-02T18:59:00.807Z,21.48
2023-01-02T19:04:27.245Z,15.57
2023-01-02T19:09:34.478Z,14.00
2023-01-02T19:14:40.310Z,13.40
2023-01-02T19:19:46.018Z,17.35
2023-01-02T19:24:50.302Z,19.20
2023-01-02T19:29:54.811Z,31.02
2023-01-02T19:35:03.610Z,24.40
2023-01-02T19:40:18.968Z,20.30
2023-01-02T19:45:26.053Z,20.33
2023-01-02T19:50:31.145Z,20.33
2023-01-02T19:55:36.585Z,24.33
2023-01-02T20:00:40.543Z,21.27
2023-01-02T20:05:45.697Z,22.55
2023-01-02T20:10:49.495Z,21.25
2023-01-02T20:15:53.402Z,22.13
2023-01-02T20:20:58.666Z,23.55
2023-01-02T20:26:03.763Z,26.10
2023-01-02T20:31:07.577Z,51.92
2023-01-02T20:36:13.841Z,25.77
2023-01-02T20:41:17.765Z,26.42
2023-01-02T20:46:21.650Z,23.67
2023-01-02T20:51:26.782Z,34.28
2023-01-02T20:56:30.802Z,29.48
2023-01-02T21:01:34.691Z,28.20
2023-01-02T21:06:39.917Z,23.83
2023-01-02T21:11:43.730Z,30.98
2023-01-02T21:16:47.678Z,28.75
2023-01-02T21:21:52.866Z,31.60
2023-01-02T21:26:56.753Z,30.85
2023-01-02T21:32:00.465Z,25.92
2023-01-02T21:37:05.557Z,24.98
2023-01-02T21:42:18.403Z,22.55
2023-01-02T21:47:22.212Z,25.33
2023-01-02T21:52:27.393Z,26.55
2023-01-02T21:58:02.796Z,22.58
2023-01-02T22:02:56.588Z,22.55
2023-01-02T22:08:01.776Z,37.35
2023-01-02T22:13:05.524Z,45.78
2023-01-02T22:18:09.333Z,34.15
2023-01-02T22:23:14.380Z,23.85
2023-01-02T22:28:18.296Z,23.25
2023-01-02T22:33:22.135Z,14.23
2023-01-02T22:38:27.295Z,18.58
2023-01-02T22:43:36.153Z,14.15
2023-01-02T22:48:42.438Z,16.20
2023-01-02T22:53:47.610Z,17.55
2023-01-02T22:58:51.916Z,13.68
2023-01-02T23:03:55.797Z,22.73
2023-01-02T23:09:00.967Z,17.05
2023-01-02T23:14:04.998Z,17.05
2023-01-02T23:19:18.912Z,24.40
2023-01-02T23:24:27.739Z,20.70
2023-01-02T23:29:31.968Z,26.12
2023-01-02T23:34:35.676Z,23.10
2023-01-02T23:39:40.832Z,30.10
2023-01-02T23:44:44.784Z,28.62
2023-01-02T23:49:48.579Z,28.17
2023-01-02T23:54:53.726Z,24.35
2023-01-02T23:59:57.471Z,34.08
